M I D A S
Marine Information and Data Acquisition System
Tripno 849 of the Zeeleeuw from 2005-02-21 08:20:01 to 2005-02-22 10:23:57
Back to CruiseResearch ActivitiesStationsMapUnderway DataData graphs

EquipmentUnitsComment
TimeDGPSUTC
LatitudeDGPSDM.mWGS84
LongitudeDGPSDM.mWGS84
HeadingGyrodeg 
SOGDGPSknotsSpeed over ground
COGDGPSdegCourse over ground
DepthEcho soundermeters200 kHz
Missing or incorrect values are displayed as -999
Navigation data collected by the RV Zeeleeuw from 2005-02-21 08:19:41 to 2005-02-22 10:35:33
                                                                                    Next 1000 lines
Time Latitude Longitude Heading SOG COG Depth
2005-02-21 08:19:50 51°13.597 2°56.096 116.6 1.4 298 8
2005-02-21 08:19:54 51°13.598 2°56.093 116.7 1.9 296 7.9
2005-02-21 08:20:01 51°13.6 2°56.087 116.9 1.9 296 -999
2005-02-21 08:20:06 51°13.601 2°56.081 117.4 2.5 296 -999
2005-02-21 08:20:11 51°13.603 2°56.075 118.3 2.7 297 -999
2005-02-21 08:20:16 51°13.605 2°56.069 119.5 3 299 -999
2005-02-21 08:20:21 51°13.607 2°56.064 120.4 3.2 299 -999
2005-02-21 08:20:26 51°13.61 2°56.057 120.9 3.4 301 -999
2005-02-21 08:20:30 51°13.612 2°56.051 121.2 3.5 300 -999
2005-02-21 08:20:36 51°13.615 2°56.042 121.1 3.8 301 -999
2005-02-21 08:20:41 51°13.617 2°56.035 120.7 4 299 5
2005-02-21 08:20:46 51°13.62 2°56.027 120.2 4 299 4.9
2005-02-21 08:20:51 51°13.623 2°56.019 119.7 4.2 298 -999
2005-02-21 08:20:56 51°13.626 2°56.01 119.1 4.3 299 -999
2005-02-21 08:21:01 51°13.629 2°56.002 118.5 4.4 297 -999
2005-02-21 08:21:05 51°13.631 2°55.995 118.2 4.5 296 -999
2005-02-21 08:21:11 51°13.634 2°55.983 117.6 4.7 295 -999
2005-02-21 08:21:16 51°13.637 2°55.973 117.6 4.8 295 -999
2005-02-21 08:21:21 51°13.64 2°55.963 117.9 4.8 295 -999
2005-02-21 08:21:26 51°13.643 2°55.953 119 5 296 -999
2005-02-21 08:21:31 51°13.647 2°55.942 120.6 5.2 296 -999
2005-02-21 08:21:36 51°13.65 2°55.932 121.9 5.4 298 -999
2005-02-21 08:21:41 51°13.654 2°55.922 123.3 5.4 299 -999
2005-02-21 08:21:45 51°13.657 2°55.913 124.6 5.6 300 -999
2005-02-21 08:21:51 51°13.662 2°55.901 125.4 5.6 300 -999
2005-02-21 08:21:56 51°13.666 2°55.889 125.7 5.7 301 -999
2005-02-21 08:22:01 51°13.671 2°55.878 126 5.7 301 -999
2005-02-21 08:22:06 51°13.675 2°55.868 126.2 5.7 301 -999
2005-02-21 08:22:10 51°13.679 2°55.859 126.7 5.8 303 -999
2005-02-21 08:22:16 51°13.684 2°55.846 127 5.8 304 -999
2005-02-21 08:22:21 51°13.689 2°55.836 127.3 5.8 304 -999
2005-02-21 08:22:26 51°13.693 2°55.825 127.4 5.8 305 -999
2005-02-21 08:22:30 51°13.697 2°55.817 127.4 5.8 305 -999
2005-02-21 08:22:36 51°13.702 2°55.806 127.3 5.6 306 -999
2005-02-21 08:22:41 51°13.707 2°55.795 126.8 5.5 305 -999
2005-02-21 08:22:46 51°13.711 2°55.786 126.1 5.2 305 -999
2005-02-21 08:22:50 51°13.713 2°55.779 125.3 5.2 305 13.8
2005-02-21 08:22:55 51°13.717 2°55.77 124.2 4.8 304 13.6
2005-02-21 08:23:01 51°13.721 2°55.76 123.2 4.6 303 13.6
2005-02-21 08:23:06 51°13.724 2°55.752 121.9 4.6 303 13.7
2005-02-21 08:23:10 51°13.727 2°55.744 119.9 4.4 300 13.1
2005-02-21 08:23:15 51°13.729 2°55.737 118.3 4 300 11.9
2005-02-21 08:23:21 51°13.732 2°55.73 116.8 4 300 11.6
2005-02-21 08:23:25 51°13.733 2°55.725 114.5 3.1 298 11.4
2005-02-21 08:23:31 51°13.735 2°55.72 111.6 2.3 298 11
2005-02-21 08:23:35 51°13.736 2°55.718 108.2 2.1 297 11.2
2005-02-21 08:23:41 51°13.737 2°55.716 105.6 1.2 304 11.5
2005-02-21 08:23:45 51°13.738 2°55.715 101.9 1 307 11.2
2005-02-21 08:23:51 51°13.739 2°55.716 96.4 1 307 11.1
2005-02-21 08:23:55 51°13.74 2°55.717 91 0.6 17 11
2005-02-21 08:24:01 51°13.741 2°55.719 86.3 0.6 17 11
2005-02-21 08:24:05 51°13.742 2°55.721 79.9 1.2 45 10.8
2005-02-21 08:24:10 51°13.744 2°55.723 73.1 1.6 44 10.7
2005-02-21 08:24:16 51°13.746 2°55.725 66 1.5 32 11.1
2005-02-21 08:24:21 51°13.747 2°55.726 60.9 1.5 32 11
2005-02-21 08:24:25 51°13.748 2°55.726 56.9 1.1 19 11
2005-02-21 08:24:30 51°13.749 2°55.725 52.8 0.8 357 11
2005-02-21 08:24:35 51°13.75 2°55.723 49 0.6 315 11
2005-02-21 08:24:41 51°13.75 2°55.721 45.5 0.6 315 11
2005-02-21 08:24:45 51°13.749 2°55.719 43.5 0.9 267 11
2005-02-21 08:24:51 51°13.748 2°55.716 41.3 1.2 251 11
2005-02-21 08:24:56 51°13.747 2°55.713 39.1 1.6 239 11.1
2005-02-21 08:25:01 51°13.745 2°55.709 37.1 1.6 239 -999
2005-02-21 08:25:06 51°13.743 2°55.705 34.7 2 228 5.2
2005-02-21 08:25:11 51°13.741 2°55.703 32.6 2 228 -999
2005-02-21 08:25:16 51°13.74 2°55.7 30.9 1.7 229 11.1
2005-02-21 08:25:21 51°13.739 2°55.698 29.2 1.3 235 -999
2005-02-21 08:25:26 51°13.739 2°55.697 27.1 0.6 271 -999
2005-02-21 08:25:30 51°13.74 2°55.696 23 0.6 298 11.3
2005-02-21 08:25:34 51°13.742 2°55.695 18.4 1.1 341 11.2
2005-02-21 08:25:41 51°13.745 2°55.694 13 1.1 341 11.1
2005-02-21 08:25:45 51°13.748 2°55.693 5.4 2.4 345 11
2005-02-21 08:25:50 51°13.753 2°55.69 356.6 2.9 343 10.9
2005-02-21 08:25:56 51°13.758 2°55.687 350.9 3.4 341 11.2
2005-02-21 08:26:01 51°13.763 2°55.684 347.8 3.7 338 11.2
2005-02-21 08:26:05 51°13.768 2°55.68 345.2 3.7 338 11.2
2005-02-21 08:26:11 51°13.775 2°55.676 344.6 3.7 338 11.2
2005-02-21 08:26:16 51°13.781 2°55.671 344.6 3.7 338 11.2
2005-02-21 08:26:21 51°13.788 2°55.666 344.7 3.7 338 11.1
2005-02-21 08:26:26 51°13.796 2°55.661 344.4 5.8 337 11.2
2005-02-21 08:26:31 51°13.804 2°55.656 343.3 6 337 11.4
2005-02-21 08:26:36 51°13.813 2°55.649 341.8 6 337 11.3
2005-02-21 08:26:41 51°13.821 2°55.644 341.1 6.7 337 11.3
2005-02-21 08:26:45 51°13.829 2°55.639 341.1 7 337 11.4
2005-02-21 08:26:50 51°13.838 2°55.633 341 7.1 338 11.3
2005-02-21 08:26:55 51°13.847 2°55.626 340 7.4 336 11
2005-02-21 08:27:01 51°13.858 2°55.618 338.9 7.4 336 10.9
2005-02-21 08:27:05 51°13.863 2°55.614 338.8 6.3 337 10.7
2005-02-21 08:27:10 51°13.877 2°55.605 339.3 6 337 10.6
2005-02-21 08:27:16 51°13.888 2°55.597 339 6 337 10.9
2005-02-21 08:27:21 51°13.898 2°55.589 338.1 8 335 11.1
2005-02-21 08:27:25 51°13.906 2°55.583 337.6 6.3 334 11.2
2005-02-21 08:27:30 51°13.917 2°55.574 337.4 6.3 334 11.2
2005-02-21 08:27:35 51°13.927 2°55.567 337.5 8.2 334 11.2
2005-02-21 08:27:41 51°13.939 2°55.557 337.5 8.3 334 10.8
2005-02-21 08:27:45 51°13.949 2°55.55 337.6 8.4 335 11.1
2005-02-21 08:27:50 51°13.959 2°55.542 338.1 8.4 335 11.2
2005-02-21 08:27:55 51°13.97 2°55.534 338.3 8.5 335 11.2
2005-02-21 08:28:01 51°13.982 2°55.525 338.4 8.5 335 11.2
2005-02-21 08:28:05 51°13.99 2°55.519 338.8 8.6 335 11.1
2005-02-21 08:28:11 51°14.004 2°55.509 338.9 8.6 335 11.2
2005-02-21 08:28:15 51°14.012 2°55.502 338.7 8.6 334 11
2005-02-21 08:28:21 51°14.025 2°55.493 338.3 8.7 334 10.8
2005-02-21 08:28:25 51°14.035 2°55.485 338.6 8.7 335 10.7
2005-02-21 08:28:31 51°14.048 2°55.476 338.8 8.7 335 10.6
2005-02-21 08:28:35 51°14.058 2°55.468 338.9 8.7 335 10.6
2005-02-21 08:28:41 51°14.071 2°55.458 339 8.7 335 10.5
2005-02-21 08:28:45 51°14.082 2°55.45 338.7 9.5 335 10.5
2005-02-21 08:28:50 51°14.094 2°55.441 338.2 9.5 335 10.5
2005-02-21 08:28:55 51°14.105 2°55.433 338.3 9.7 335 10.5
2005-02-21 08:29:01 51°14.119 2°55.421 338.5 9.7 334 10.5
2005-02-21 08:29:05 51°14.13 2°55.412 338.3 9.9 334 10.7
2005-02-21 08:29:11 51°14.144 2°55.401 337.9 9.9 334 11.4
2005-02-21 08:29:16 51°14.155 2°55.39 336.6 9.9 334 11
2005-02-21 08:29:21 51°14.167 2°55.378 334.7 9.9 334 10.7
2005-02-21 08:29:25 51°14.178 2°55.366 332.8 9.9 334 10.6
2005-02-21 08:29:30 51°14.19 2°55.353 330.7 9.9 334 10.7
2005-02-21 08:29:35 51°14.202 2°55.339 328.7 -999 -999 10.6
2005-02-21 08:29:41 51°14.214 2°55.323 328.1 -999 -999 10.7
2005-02-21 08:29:45 51°14.225 2°55.311 328 10.6 323 10.7
2005-02-21 08:29:50 51°14.236 2°55.296 326.9 10.6 322 10.8
2005-02-21 08:29:55 51°14.246 2°55.281 325.2 10.7 318 10.8
2005-02-21 08:30:01 51°14.259 2°55.262 322.9 10.7 318 10.8
2005-02-21 08:30:06 51°14.269 2°55.245 321.5 10.7 315 10.8
2005-02-21 08:30:10 51°14.278 2°55.229 319.3 10.7 313 10.8
2005-02-21 08:30:15 51°14.288 2°55.212 317.1 11 312 10.8
2005-02-21 08:30:21 51°14.299 2°55.19 316.1 11 312 10.9
2005-02-21 08:30:25 51°14.308 2°55.172 315 11 312 10.8
2005-02-21 08:30:31 51°14.319 2°55.149 314.1 11.4 309 10.8
2005-02-21 08:30:35 51°14.327 2°55.133 312.8 11.6 308 10.9
2005-02-21 08:30:41 51°14.339 2°55.108 312.1 11.6 308 10.9
2005-02-21 08:30:45 51°14.346 2°55.092 311.5 11.8 307 10.9
2005-02-21 08:30:51 51°14.358 2°55.067 311.1 11.8 307 11.1
2005-02-21 08:30:55 51°14.366 2°55.05 310.6 11.8 307 11.1
2005-02-21 08:31:01 51°14.378 2°55.025 310.9 11.8 307 10.9
2005-02-21 08:31:05 51°14.388 2°55.008 312.3 11.8 308 10.9
2005-02-21 08:31:10 51°14.4 2°54.99 316.3 11.8 308 11
2005-02-21 08:31:15 51°14.413 2°54.975 320 12.1 322 11
2005-02-21 08:31:21 51°14.43 2°54.958 324.9 12.1 324 11
2005-02-21 08:31:25 51°14.443 2°54.947 330.1 12.2 328 11
2005-02-21 08:31:30 51°14.459 2°54.935 335 12.2 328 10.8
2005-02-21 08:31:35 51°14.475 2°54.923 337.5 12.2 328 10.9
2005-02-21 08:31:41 51°14.493 2°54.909 338.4 12.2 328 10.8
2005-02-21 08:31:46 51°14.509 2°54.899 339.2 12.9 338 11.5
2005-02-21 08:31:50 51°14.524 2°54.89 341.3 12.9 338 10.8
2005-02-21 08:31:55 51°14.541 2°54.881 343.6 12.9 338 10.7
2005-02-21 08:32:01 51°14.56 2°54.872 345.3 13 342 10.7
2005-02-21 08:32:05 51°14.576 2°54.864 346.7 13.1 343 10.7
2005-02-21 08:32:10 51°14.592 2°54.857 347.4 13.1 343 10.6
2005-02-21 08:32:15 51°14.609 2°54.848 348 13.1 344 10.6
2005-02-21 08:32:21 51°14.63 2°54.839 348.3 13.1 344 10.5
2005-02-21 08:32:25 51°14.645 2°54.832 348.6 13.1 344 10.5
2005-02-21 08:32:30 51°14.664 2°54.823 348.7 13.1 344 10.5
2005-02-21 08:32:35 51°14.68 2°54.816 348.7 13.3 344 10.4
2005-02-21 08:32:41 51°14.701 2°54.806 348.5 13.3 344 10.4
2005-02-21 08:32:45 51°14.715 2°54.8 348.4 13.2 344 10.5
2005-02-21 08:32:51 51°14.737 2°54.789 348.3 13.2 344 10.1
2005-02-21 08:32:55 51°14.75 2°54.782 348.2 13.2 343 10.4
2005-02-21 08:33:00 51°14.77 2°54.773 348.1 13.2 343 10.3
2005-02-21 08:33:05 51°14.787 2°54.765 348.3 13.2 343 10.3
2005-02-21 08:33:10 51°14.805 2°54.757 348.3 13.2 343 10.3
2005-02-21 08:33:14 51°14.819 2°54.75 348.2 13.2 344 10.3
2005-02-21 08:33:21 51°14.842 2°54.74 348.6 13.2 344 10.1
2005-02-21 08:33:25 51°14.856 2°54.734 348.6 13.3 344 10.1
2005-02-21 08:33:30 51°14.875 2°54.725 348.8 13.2 344 10.1
2005-02-21 08:33:36 51°14.894 2°54.715 349 13.3 344 10.1
2005-02-21 08:33:41 51°14.912 2°54.707 348.7 13.3 344 10.2
2005-02-21 08:33:45 51°14.927 2°54.699 348.3 13.2 343 10.2
2005-02-21 08:33:50 51°14.945 2°54.691 348.2 13.2 343 10
2005-02-21 08:33:56 51°14.965 2°54.682 348 13.2 343 9.8
2005-02-21 08:34:01 51°14.982 2°54.673 348.3 13.2 343 10.1
2005-02-21 08:34:06 51°15 2°54.665 348.6 13.2 343 9.6
2005-02-21 08:34:10 51°15.015 2°54.658 348.6 13.2 343 9.3
2005-02-21 08:34:16 51°15.034 2°54.649 348.9 13.2 344 9.3
2005-02-21 08:34:21 51°15.051 2°54.641 349.1 13.1 344 9.2
2005-02-21 08:34:25 51°15.067 2°54.633 349.1 13.1 343 9.1
2005-02-21 08:34:30 51°15.085 2°54.625 348.9 13.1 343 9.1
2005-02-21 08:34:35 51°15.102 2°54.617 348.9 13.1 343 9.1
2005-02-21 08:34:41 51°15.121 2°54.608 348.7 13.1 343 9
2005-02-21 08:34:45 51°15.135 2°54.6 348.6 13 342 9
2005-02-21 08:34:50 51°15.153 2°54.591 348.5 13 342 9.3
2005-02-21 08:34:54 51°15.167 2°54.583 348 12.9 342 9.2
2005-02-21 08:35:00 51°15.188 2°54.573 347.9 12.9 342 9.3
2005-02-21 08:35:05 51°15.205 2°54.564 348.5 13.1 343 9.4
2005-02-21 08:35:11 51°15.225 2°54.556 349.2 13.1 343 9.5
2005-02-21 08:35:16 51°15.242 2°54.549 349.9 13.2 344 9.5
2005-02-21 08:35:20 51°15.258 2°54.541 350.2 13.2 345 9.5
2005-02-21 08:35:25 51°15.276 2°54.532 350.3 13.2 345 9.6
2005-02-21 08:35:30 51°15.293 2°54.524 349.5 13.2 345 9.7
2005-02-21 08:35:35 51°15.309 2°54.516 349.3 13.2 343 9.8
2005-02-21 08:35:40 51°15.329 2°54.507 349.1 13.2 343 9.7
2005-02-21 08:35:45 51°15.346 2°54.499 349 13.2 343 9.7
2005-02-21 08:35:50 51°15.363 2°54.491 349.1 13.2 344 9.8
2005-02-21 08:35:56 51°15.383 2°54.482 349.5 13.2 344 9.9
2005-02-21 08:36:01 51°15.401 2°54.474 349.8 13.2 344 9.9
2005-02-21 08:36:06 51°15.418 2°54.467 350 13.2 344 10.1
2005-02-21 08:36:10 51°15.434 2°54.46 350.3 13.3 345 10.1
2005-02-21 08:36:15 51°15.452 2°54.452 350.5 13.3 345 10.1
2005-02-21 08:36:21 51°15.471 2°54.443 350.3 13.3 345 10.2
2005-02-21 08:36:25 51°15.486 2°54.437 350.2 13.1 344 10.1
2005-02-21 08:36:30 51°15.505 2°54.428 350 13.2 344 10.4
2005-02-21 08:36:35 51°15.523 2°54.42 349.8 13.2 344 10.5
2005-02-21 08:36:41 51°15.542 2°54.411 349.7 13.2 344 10.3
2005-02-21 08:36:45 51°15.558 2°54.405 349.5 13.2 344 10.7
2005-02-21 08:36:50 51°15.575 2°54.396 349.2 13.2 344 10.7
2005-02-21 08:36:55 51°15.592 2°54.389 349 13.2 344 10.7
2005-02-21 08:37:00 51°15.61 2°54.38 349 13.2 343 10.8
2005-02-21 08:37:05 51°15.628 2°54.371 349 13.2 343 10.7
2005-02-21 08:37:10 51°15.645 2°54.363 349 13.2 343 10.9
2005-02-21 08:37:14 51°15.659 2°54.357 348.9 13.1 343 10.9
2005-02-21 08:37:20 51°15.68 2°54.347 349.1 13.2 344 11
2005-02-21 08:37:26 51°15.699 2°54.338 349 13.2 344 11.2
2005-02-21 08:37:30 51°15.715 2°54.33 349.1 13.2 344 11.2
2005-02-21 08:37:36 51°15.734 2°54.321 349.3 13.2 343 11.3
2005-02-21 08:37:41 51°15.752 2°54.313 349.1 13.2 343 11.3
2005-02-21 08:37:45 51°15.766 2°54.305 348.8 13.2 343 11.5
2005-02-21 08:37:50 51°15.785 2°54.297 348.9 13.2 343 11.4
2005-02-21 08:37:55 51°15.802 2°54.288 348.8 13.2 343 11.4
2005-02-21 08:38:01 51°15.821 2°54.278 349.1 13.2 343 11.4
2005-02-21 08:38:05 51°15.836 2°54.27 348.9 -999 -999 11.5
2005-02-21 08:38:10 51°15.853 2°54.261 348.6 -999 -999 11.6
2005-02-21 08:38:15 51°15.869 2°54.252 348.4 13.1 342 11.7
2005-02-21 08:38:21 51°15.889 2°54.241 348.3 13.1 342 11.8
2005-02-21 08:38:25 51°15.903 2°54.234 348.5 12.6 341 11.9
2005-02-21 08:38:30 51°15.919 2°54.225 348.2 12.6 341 11.9
2005-02-21 08:38:34 51°15.932 2°54.218 348.1 11.7 341 11.8
2005-02-21 08:38:41 51°15.951 2°54.207 348.2 11.7 341 11.9
2005-02-21 08:38:45 51°15.963 2°54.201 348.2 11.7 341 12
2005-02-21 08:38:50 51°15.975 2°54.194 348.7 11.7 341 12.1
2005-02-21 08:38:55 51°15.987 2°54.189 349.5 11.7 341 12.2
2005-02-21 08:39:01 51°16.002 2°54.183 350.7 11.7 341 12.2
2005-02-21 08:39:06 51°16.015 2°54.18 351.9 11.7 341 12.1
2005-02-21 08:39:10 51°16.026 2°54.179 355.1 -999 -999 12.1
2005-02-21 08:39:15 51°16.037 2°54.179 359.3 8.6 359 12.2
2005-02-21 08:39:20 51°16.05 2°54.18 4 8.6 3 12.2
2005-02-21 08:39:26 51°16.062 2°54.184 8.7 8.6 3 12.3
2005-02-21 08:39:30 51°16.072 2°54.188 14.4 8.6 3 12.4
2005-02-21 08:39:35 51°16.084 2°54.194 18.4 8.5 15 12.3
2005-02-21 08:39:41 51°16.096 2°54.202 22.5 8.5 15 12.4
2005-02-21 08:39:45 51°16.105 2°54.209 25.4 8.8 23 12.3
2005-02-21 08:39:51 51°16.119 2°54.218 27.6 8.8 23 12.4
2005-02-21 08:39:56 51°16.13 2°54.226 28.6 8.8 23 12.4
2005-02-21 08:40:00 51°16.14 2°54.233 28.9 8.8 23 12.3
2005-02-21 08:40:05 51°16.151 2°54.24 28.4 8.8 23 12.3
2005-02-21 08:40:10 51°16.161 2°54.248 27.5 8.6 24 12.3
2005-02-21 08:40:16 51°16.173 2°54.255 26.9 8.6 24 12.3
2005-02-21 08:40:20 51°16.181 2°54.26 26.5 7.6 22 12.3
2005-02-21 08:40:25 51°16.19 2°54.266 26.1 7.6 22 12.3
2005-02-21 08:40:30 51°16.199 2°54.271 25.9 7 22 12.3
2005-02-21 08:40:36 51°16.208 2°54.276 25.4 7 22 12.4
2005-02-21 08:40:41 51°16.215 2°54.281 25.2 7 22 12.5
2005-02-21 08:40:46 51°16.223 2°54.285 24.4 6 20 12.4
2005-02-21 08:40:50 51°16.229 2°54.288 23.4 5.3 19 12.5
2005-02-21 08:40:56 51°16.236 2°54.293 22.5 5.3 19 12.5
2005-02-21 08:41:01 51°16.241 2°54.296 21.5 5.3 19 12.5
2005-02-21 08:41:05 51°16.246 2°54.298 21.2 4.2 20 12.5
2005-02-21 08:41:10 51°16.251 2°54.3 20 4.1 19 12.5
2005-02-21 08:41:14 51°16.254 2°54.301 18.5 3 18 12.6
2005-02-21 08:41:20 51°16.258 2°54.303 15.6 2.4 13 12.6
2005-02-21 08:41:26 51°16.26 2°54.303 13.7 2.4 13 12.4
2005-02-21 08:41:31 51°16.262 2°54.304 11.3 2.4 13 12.5
2005-02-21 08:41:35 51°16.264 2°54.303 8 1.5 358 12.6
2005-02-21 08:41:40 51°16.266 2°54.304 5 1.5 358 12.6
2005-02-21 08:41:46 51°16.268 2°54.303 0.8 1.4 359 12.5
2005-02-21 08:41:50 51°16.27 2°54.303 357.9 1.4 353 12.6
2005-02-21 08:41:55 51°16.271 2°54.303 355.6 1.4 353 12.6
2005-02-21 08:42:01 51°16.272 2°54.303 353.4 1.4 353 12.7
2005-02-21 08:42:05 51°16.274 2°54.302 351.6 1 344 12.7
2005-02-21 08:42:10 51°16.275 2°54.301 349.3 1 344 12.6
2005-02-21 08:42:15 51°16.277 2°54.3 348.3 0.9 342 12.7
2005-02-21 08:42:20 51°16.278 2°54.299 346.4 0.9 329 12.6
2005-02-21 08:42:26 51°16.279 2°54.299 345.6 0.9 329 12.6
2005-02-21 08:42:30 51°16.28 2°54.297 344.4 0.9 325 12.6
2005-02-21 08:42:34 51°16.281 2°54.296 343.6 0.7 327 12.6
2005-02-21 08:42:40 51°16.281 2°54.295 342.1 0.7 314 12.7
2005-02-21 08:42:45 51°16.282 2°54.294 341.1 0.7 320 12.6
2005-02-21 08:42:50 51°16.283 2°54.293 339.9 0.7 310 12.6
2005-02-21 08:42:56 51°16.284 2°54.292 339.5 0.7 313 12.7
2005-02-21 08:43:01 51°16.284 2°54.29 338.7 0.7 313 12.7
2005-02-21 08:43:06 51°16.284 2°54.289 338 0.6 309 12.6
2005-02-21 08:43:10 51°16.285 2°54.288 337.8 0.6 315 12.5
2005-02-21 08:43:15 51°16.285 2°54.288 337.5 0.6 315 12.6
2005-02-21 08:43:21 51°16.286 2°54.286 337.4 0.5 304 12.6
2005-02-21 08:43:25 51°16.286 2°54.285 337.5 0.6 295 12.5
2005-02-21 08:43:30 51°16.286 2°54.284 337.5 0.4 307 12.6
2005-02-21 08:43:34 51°16.287 2°54.283 337.1 0.6 291 12.5
2005-02-21 08:43:40 51°16.287 2°54.282 336.7 0.5 295 12.5
2005-02-21 08:43:45 51°16.287 2°54.281 336.9 0.5 298 12.5
2005-02-21 08:43:50 51°16.287 2°54.28 337.1 0.5 298 12.5
2005-02-21 08:43:55 51°16.287 2°54.28 336.8 0.5 298 12.6
2005-02-21 08:44:01 51°16.288 2°54.279 337.2 0.5 298 12.6
2005-02-21 08:44:06 51°16.288 2°54.278 337.6 0.5 298 12.7
2005-02-21 08:44:10 51°16.288 2°54.277 338.3 0.5 276 12.6
2005-02-21 08:44:15 51°16.288 2°54.276 338.8 0.5 276 12.5
2005-02-21 08:44:20 51°16.288 2°54.275 339.2 0.5 276 12.5
2005-02-21 08:44:25 51°16.288 2°54.275 339.3 0.5 276 12.5
2005-02-21 08:44:30 51°16.288 2°54.274 338.9 0.4 262 12.6
2005-02-21 08:44:36 51°16.288 2°54.273 339.5 0.4 262 12.6
2005-02-21 08:44:41 51°16.288 2°54.272 339.4 0.4 262 12.7
2005-02-21 08:44:45 51°16.288 2°54.271 339.5 0.3 268 12.7
2005-02-21 08:44:50 51°16.288 2°54.27 340 0.3 268 12.6
2005-02-21 08:44:56 51°16.287 2°54.27 340.5 0.4 264 12.6
2005-02-21 08:45:01 51°16.287 2°54.268 341.1 0.4 264 12.6
2005-02-21 08:45:05 51°16.287 2°54.268 341.8 0.4 264 12.7
2005-02-21 08:45:10 51°16.287 2°54.267 341.6 0.4 264 12.6
2005-02-21 08:45:15 51°16.287 2°54.267 341.7 0.4 264 12.6
2005-02-21 08:45:21 51°16.287 2°54.266 341.5 0.4 264 12.6
2005-02-21 08:45:25 51°16.287 2°54.266 342.3 0.2 216 12.5
2005-02-21 08:45:30 51°16.286 2°54.265 343.2 0.4 257 12.5
2005-02-21 08:45:35 51°16.286 2°54.265 343.6 0.4 257 12.6
2005-02-21 08:45:41 51°16.286 2°54.264 344.6 0.4 257 12.7
2005-02-21 08:45:45 51°16.285 2°54.264 345.4 0.2 197 12.7
2005-02-21 08:45:50 51°16.285 2°54.263 345.8 0.4 242 12.7
2005-02-21 08:45:55 51°16.285 2°54.262 346.1 0.3 211 12.7
2005-02-21 08:46:01 51°16.284 2°54.262 346.3 0.3 211 12.8
2005-02-21 08:46:05 51°16.284 2°54.262 346.5 0.3 207 12.7
2005-02-21 08:46:10 51°16.284 2°54.261 346.6 0.4 228 12.7
2005-02-21 08:46:14 51°16.284 2°54.261 347 0.3 212 12.7
2005-02-21 08:46:21 51°16.283 2°54.261 347.4 0.4 244 12.8
2005-02-21 08:46:25 51°16.283 2°54.26 347.8 0.4 244 12.7
2005-02-21 08:46:30 51°16.283 2°54.26 347.9 0.3 229 12.7
2005-02-21 08:46:36 51°16.283 2°54.259 348.3 0.3 229 12.7
2005-02-21 08:46:41 51°16.282 2°54.259 348.5 0.3 229 12.7
2005-02-21 08:46:45 51°16.282 2°54.258 348.7 0.4 233 12.7
2005-02-21 08:46:50 51°16.281 2°54.258 348.9 0.4 222 12.6
2005-02-21 08:46:54 51°16.281 2°54.257 349.3 0.3 200 12.7
2005-02-21 08:47:01 51°16.28 2°54.257 349.6 0.4 220 12.7
2005-02-21 08:47:05 51°16.28 2°54.256 349.8 0.5 201 12.7
2005-02-21 08:47:10 51°16.279 2°54.256 349.8 0.4 206 12.6
2005-02-21 08:47:16 51°16.279 2°54.255 349.8 0.4 206 12.6
2005-02-21 08:47:21 51°16.278 2°54.255 350 0.4 206 12.6
2005-02-21 08:47:25 51°16.278 2°54.254 350 0.4 206 12.7
2005-02-21 08:47:30 51°16.277 2°54.254 350.3 0.4 208 12.7
2005-02-21 08:47:35 51°16.277 2°54.253 350.3 0.4 207 12.8
2005-02-21 08:47:41 51°16.277 2°54.252 350.1 0.4 200 12.7
2005-02-21 08:47:45 51°16.276 2°54.252 350 0.4 200 12.7
2005-02-21 08:47:50 51°16.275 2°54.252 350.2 0.4 200 12.7
2005-02-21 08:47:54 51°16.275 2°54.251 350.5 0.4 208 12.6
2005-02-21 08:48:01 51°16.274 2°54.251 350.4 0.6 194 12.7
2005-02-21 08:48:05 51°16.273 2°54.25 350 0.6 194 12.7
2005-02-21 08:48:10 51°16.272 2°54.25 349.9 0.6 194 12.7
2005-02-21 08:48:15 51°16.272 2°54.249 349.1 0.6 194 12.6
2005-02-21 08:48:21 51°16.271 2°54.25 348.5 0.6 194 12.7
2005-02-21 08:48:25 51°16.27 2°54.249 348 0.6 193 12.8
2005-02-21 08:48:31 51°16.269 2°54.249 347.6 0.6 193 12.8
2005-02-21 08:48:35 51°16.269 2°54.248 346.9 0.6 193 12.7
2005-02-21 08:48:40 51°16.268 2°54.248 346.3 0.5 206 12.7
2005-02-21 08:48:45 51°16.267 2°54.248 345.7 0.6 197 12.8
2005-02-21 08:48:51 51°16.266 2°54.247 345.1 0.6 178 12.8
2005-02-21 08:48:55 51°16.266 2°54.247 344.6 0.6 178 12.7
2005-02-21 08:49:01 51°16.265 2°54.247 343.8 0.6 178 12.7
2005-02-21 08:49:05 51°16.264 2°54.247 343.5 0.6 178 12.7
2005-02-21 08:49:10 51°16.264 2°54.247 342.5 0.6 178 12.8
2005-02-21 08:49:15 51°16.263 2°54.247 342 0.6 197 12.8
2005-02-21 08:49:21 51°16.262 2°54.246 341 0.6 197 12.9
2005-02-21 08:49:25 51°16.262 2°54.246 340.8 0.5 183 12.8
2005-02-21 08:49:30 51°16.26 2°54.246 339.6 0.5 183 12.7
2005-02-21 08:49:36 51°16.259 2°54.246 338.3 0.5 183 12.7
2005-02-21 08:49:41 51°16.259 2°54.246 337.3 0.5 183 12.7
2005-02-21 08:49:45 51°16.258 2°54.246 336.9 0.5 174 12.6
2005-02-21 08:49:50 51°16.257 2°54.245 335.6 0.5 174 12.6
2005-02-21 08:49:55 51°16.257 2°54.245 335.1 0.5 174 12.7
2005-02-21 08:50:01 51°16.256 2°54.245 334.3 0.5 174 12.7
2005-02-21 08:50:05 51°16.255 2°54.245 334.1 0.6 192 12.8
2005-02-21 08:50:10 51°16.254 2°54.245 333 0.7 188 12.7
2005-02-21 08:50:15 51°16.254 2°54.245 332 0.7 188 12.7
2005-02-21 08:50:20 51°16.253 2°54.245 331 0.7 203 12.8
2005-02-21 08:50:25 51°16.252 2°54.245 330.7 0.7 203 12.8
2005-02-21 08:50:30 51°16.252 2°54.245 329.8 0.7 203 12.8
2005-02-21 08:50:35 51°16.251 2°54.244 328.9 0.4 164 12.8
2005-02-21 08:50:41 51°16.25 2°54.245 328.3 0.4 164 12.8
2005-02-21 08:50:45 51°16.249 2°54.244 327.8 0.5 159 12.8
2005-02-21 08:50:50 51°16.249 2°54.244 327 0.6 196 12.7
2005-02-21 08:50:55 51°16.248 2°54.243 326 0.6 196 12.7
2005-02-21 08:51:01 51°16.247 2°54.245 325.2 0.7 193 12.8
2005-02-21 08:51:05 51°16.247 2°54.244 324.1 0.5 150 12.7
2005-02-21 08:51:10 51°16.245 2°54.244 323.3 0.7 195 12.7
2005-02-21 08:51:16 51°16.245 2°54.244 322.4 0.7 195 12.7
2005-02-21 08:51:21 51°16.244 2°54.244 321.6 0.7 195 12.7
2005-02-21 08:51:25 51°16.243 2°54.244 321.3 0.5 165 12.7
2005-02-21 08:51:30 51°16.243 2°54.244 320 0.5 165 12.8
2005-02-21 08:51:34 51°16.242 2°54.244 319.7 0.4 177 12.7
2005-02-21 08:51:41 51°16.241 2°54.244 319.2 0.7 199 12.8
2005-02-21 08:51:46 51°16.24 2°54.243 318.3 0.7 201 12.6
2005-02-21 08:51:50 51°16.24 2°54.244 316.9 0.6 194 12.6
2005-02-21 08:51:56 51°16.239 2°54.244 315.7 0.6 194 12.6
2005-02-21 08:52:01 51°16.238 2°54.244 315.5 0.4 185 12.7
2005-02-21 08:52:06 51°16.238 2°54.244 314.4 0.4 185 12.7
2005-02-21 08:52:10 51°16.237 2°54.243 313.7 0.5 176 12.7
2005-02-21 08:52:15 51°16.236 2°54.244 312.8 0.5 176 12.7
2005-02-21 08:52:21 51°16.236 2°54.243 312.1 0.5 176 12.7
2005-02-21 08:52:25 51°16.235 2°54.242 311.6 0.7 230 12.8
2005-02-21 08:52:30 51°16.236 2°54.24 312 0.4 270 12.8
2005-02-21 08:52:36 51°16.236 2°54.238 312.4 0.4 270 12.8
2005-02-21 08:52:41 51°16.237 2°54.235 312.5 1.2 297 12.8
2005-02-21 08:52:45 51°16.238 2°54.232 312.1 1.2 297 12.8
2005-02-21 08:52:50 51°16.24 2°54.227 312.2 1.2 297 12.8
2005-02-21 08:52:54 51°16.241 2°54.222 312 1.2 297 12.8
2005-02-21 08:53:00 51°16.245 2°54.215 312 3 302 12.8
2005-02-21 08:53:06 51°16.248 2°54.207 312.4 3 302 12.8
2005-02-21 08:53:10 51°16.251 2°54.2 313.2 3 302 12.7
2005-02-21 08:53:15 51°16.255 2°54.192 313.4 4.4 304 12.7
2005-02-21 08:53:21 51°16.26 2°54.182 313.4 4.4 304 12.7
2005-02-21 08:53:25 51°16.264 2°54.175 314.4 4.4 304 12.6
2005-02-21 08:53:30 51°16.269 2°54.164 314 5.8 309 12.8
2005-02-21 08:53:35 51°16.275 2°54.153 314.1 6.1 309 12.8
2005-02-21 08:53:41 51°16.283 2°54.137 314.1 6.1 309 12.8
2005-02-21 08:53:45 51°16.289 2°54.124 313.2 7.8 308 12.9
2005-02-21 08:53:51 51°16.297 2°54.107 313.1 8.6 307 12.9
2005-02-21 08:53:56 51°16.305 2°54.091 312.8 8.9 307 12.8
2005-02-21 08:54:01 51°16.313 2°54.073 312.9 8.9 307 12.7
2005-02-21 08:54:05 51°16.321 2°54.058 313 9.9 308 12.7
2005-02-21 08:54:10 51°16.33 2°54.038 313.1 9.9 308 12.9
2005-02-21 08:54:16 51°16.34 2°54.017 312.6 10.6 308 12.8
2005-02-21 08:54:21 51°16.349 2°53.999 312.8 10.6 308 13.1
2005-02-21 08:54:25 51°16.358 2°53.981 312.9 11 308 13.2
2005-02-21 08:54:30 51°16.368 2°53.961 312.7 11.3 308 13.2
2005-02-21 08:54:34 51°16.375 2°53.945 313 11.5 308 13.4
2005-02-21 08:54:41 51°16.389 2°53.918 313.3 11.7 308 13.3
2005-02-21 08:54:46 51°16.399 2°53.899 313.1 11.8 308 13.2
2005-02-21 08:54:50 51°16.408 2°53.879 313.4 12.1 308 13.3
2005-02-21 08:54:55 51°16.417 2°53.86 313.1 12.1 308 13.1
2005-02-21 08:55:00 51°16.429 2°53.836 313 12.1 308 13.1
2005-02-21 08:55:06 51°16.441 2°53.813 313.1 12.1 308 13.3
2005-02-21 08:55:10 51°16.451 2°53.793 313.5 12.1 308 13.5
2005-02-21 08:55:14 51°16.459 2°53.776 313.6 12.6 309 13.5
2005-02-21 08:55:20 51°16.472 2°53.75 313.6 12.8 308 13.6
2005-02-21 08:55:26 51°16.486 2°53.723 313.2 12.8 308 13.5
2005-02-21 08:55:31 51°16.495 2°53.704 313.5 12.8 308 13.6
2005-02-21 08:55:36 51°16.507 2°53.68 313 12.8 308 13.7
2005-02-21 08:55:41 51°16.517 2°53.658 313.5 12.8 308 13.4
2005-02-21 08:55:45 51°16.527 2°53.638 312.9 12.8 308 13.4
2005-02-21 08:55:50 51°16.539 2°53.615 313 13 308 13.5
2005-02-21 08:55:55 51°16.549 2°53.594 313.1 12.9 309 13.6
2005-02-21 08:56:00 51°16.56 2°53.571 313.4 12.9 309 13.6
2005-02-21 08:56:05 51°16.571 2°53.547 313.2 12.9 309 13.4
2005-02-21 08:56:10 51°16.582 2°53.525 312.9 12.9 309 13.3
2005-02-21 08:56:16 51°16.594 2°53.501 313.3 12.9 309 13.4
2005-02-21 08:56:21 51°16.605 2°53.477 313.4 12.9 309 13.1
2005-02-21 08:56:25 51°16.615 2°53.458 313.8 12.8 308 13.3
2005-02-21 08:56:30 51°16.627 2°53.436 313.6 12.8 308 13.4
2005-02-21 08:56:35 51°16.638 2°53.413 314.1 12.8 308 13.2
2005-02-21 08:56:41 51°16.649 2°53.39 313.7 12.8 308 13.5
2005-02-21 08:56:45 51°16.659 2°53.368 313.3 12.8 307 13.1
2005-02-21 08:56:50 51°16.67 2°53.345 312.3 12.9 307 13.2
2005-02-21 08:56:55 51°16.679 2°53.324 311.6 12.9 307 13.4
2005-02-21 08:57:01 51°16.691 2°53.294 311.3 12.8 305 12.9
2005-02-21 08:57:05 51°16.701 2°53.275 310.3 12.8 305 12.7
2005-02-21 08:57:10 51°16.71 2°53.251 309.9 12.8 305 13
2005-02-21 08:57:15 51°16.72 2°53.229 310 12.9 304 12.7
2005-02-21 08:57:21 51°16.732 2°53.201 310.8 12.9 304 12.5
2005-02-21 08:57:25 51°16.741 2°53.182 310.5 13.1 305 12.5
2005-02-21 08:57:30 51°16.752 2°53.158 310.6 12.9 306 12.7
2005-02-21 08:57:35 51°16.761 2°53.137 310.6 12.9 306 12.6
2005-02-21 08:57:40 51°16.773 2°53.111 310.5 13 306 12.4
2005-02-21 08:57:46 51°16.785 2°53.085 310.2 13 306 12.3
2005-02-21 08:57:50 51°16.794 2°53.064 310.6 13.2 305 12.3
2005-02-21 08:57:56 51°16.806 2°53.037 310.2 13.2 305 11.9
2005-02-21 08:58:00 51°16.815 2°53.015 310 13.2 305 11.5
2005-02-21 08:58:05 51°16.825 2°52.991 309.5 13.3 304 10.9
2005-02-21 08:58:10 51°16.835 2°52.967 309.6 13 304 10.6
2005-02-21 08:58:16 51°16.845 2°52.941 309.2 13.1 303 10.2
2005-02-21 08:58:21 51°16.855 2°52.917 309.4 13 302 10.1
2005-02-21 08:58:25 51°16.863 2°52.894 309.6 12.8 302 10
2005-02-21 08:58:30 51°16.874 2°52.87 309.3 13.1 303 10.1
2005-02-21 08:58:36 51°16.886 2°52.845 309.8 13.1 303 10.2
2005-02-21 08:58:40 51°16.895 2°52.826 311.9 13.1 308 10.6
2005-02-21 08:58:45 51°16.907 2°52.803 315 13.1 308 10.3
2005-02-21 08:58:50 51°16.919 2°52.782 317.1 13.1 308 10.4
2005-02-21 08:58:55 51°16.93 2°52.763 318.7 13 312 10.6
2005-02-21 08:59:01 51°16.944 2°52.739 320.4 12.8 313 10.8
2005-02-21 08:59:05 51°16.956 2°52.719 321.1 12.9 314 10.8
2005-02-21 08:59:10 51°16.968 2°52.699 321 12.9 314 11.1
2005-02-21 08:59:15 51°16.98 2°52.679 321.8 12.8 314 11.3
2005-02-21 08:59:21 51°16.994 2°52.655 322 12.8 314 11.2
2005-02-21 08:59:25 51°17.006 2°52.637 322 12.8 313 11.3
2005-02-21 08:59:30 51°17.018 2°52.617 321.7 12.8 313 11.3
2005-02-21 08:59:35 51°17.03 2°52.598 321.6 12.9 315 11.1
2005-02-21 08:59:41 51°17.044 2°52.576 322 12.8 314 11
2005-02-21 08:59:45 51°17.055 2°52.557 322.5 12.7 315 11.1
2005-02-21 08:59:50 51°17.069 2°52.538 323.1 12.7 315 10.9
2005-02-21 08:59:55 51°17.081 2°52.519 323.9 12.7 317 11.2
2005-02-21 09:00:00 51°17.094 2°52.5 324.3 12.6 318 11
2005-02-21 09:00:05 51°17.107 2°52.482 325.1 12.7 318 11.3
2005-02-21 09:00:10 51°17.121 2°52.462 325.5 12.7 318 11.2
2005-02-21 09:00:15 51°17.133 2°52.443 325.4 12.9 317 11.1
2005-02-21 09:00:21 51°17.148 2°52.423 325 12.9 317 11.5
2005-02-21 09:00:25 51°17.158 2°52.407 325 12.8 317 11.6
2005-02-21 09:00:30 51°17.172 2°52.385 324.9 12.6 317 11.2
2005-02-21 09:00:36 51°17.186 2°52.364 325 12.6 317 11.4
2005-02-21 09:00:41 51°17.199 2°52.345 324.7 12.8 318 11.5
2005-02-21 09:00:45 51°17.21 2°52.33 325.1 12.8 318 11.6
2005-02-21 09:00:50 51°17.225 2°52.308 325.1 12.9 317 11.8
2005-02-21 09:00:55 51°17.237 2°52.289 325.3 13 317 11.9
2005-02-21 09:01:01 51°17.252 2°52.266 325.1 13 317 11.7
2005-02-21 09:01:05 51°17.264 2°52.25 324.9 13 317 11.8
2005-02-21 09:01:10 51°17.277 2°52.231 324.5 13 317 11.9
2005-02-21 09:01:15 51°17.291 2°52.211 325.3 13 318 11.7
2005-02-21 09:01:21 51°17.305 2°52.193 326.2 13 318 11.8
2005-02-21 09:01:26 51°17.318 2°52.174 326.6 13 318 12.1
2005-02-21 09:01:30 51°17.33 2°52.157 327.5 12.7 319 11.9
2005-02-21 09:01:35 51°17.344 2°52.139 327.3 12.7 319 11.8
2005-02-21 09:01:41 51°17.358 2°52.121 327.7 12.9 320 12.1
2005-02-21 09:01:45 51°17.369 2°52.106 328 12.5 320 12
2005-02-21 09:01:50 51°17.385 2°52.085 328.1 12.8 321 12
2005-02-21 09:01:55 51°17.398 2°52.069 327.9 12.8 321 12.1
2005-02-21 09:02:00 51°17.412 2°52.05 328.1 12.8 321 12
2005-02-21 09:02:05 51°17.426 2°52.031 328 12.8 321 12.1
2005-02-21 09:02:10 51°17.44 2°52.013 328.3 12.9 321 12.1
2005-02-21 09:02:15 51°17.454 2°51.996 328.2 12.8 321 12.1
2005-02-21 09:02:21 51°17.47 2°51.975 328.4 12.9 321 12.1
2005-02-21 09:02:25 51°17.481 2°51.96 328.2 12.8 321 11.9
2005-02-21 09:02:30 51°17.496 2°51.942 328 12.8 321 11.9
2005-02-21 09:02:35 51°17.51 2°51.924 327.9 12.9 321 12
2005-02-21 09:02:41 51°17.526 2°51.904 328.4 12.8 321 11.9
2005-02-21 09:02:45 51°17.538 2°51.889 328.6 12.8 323 11.9
2005-02-21 09:02:50 51°17.553 2°51.871 328.6 12.9 323 11.9
2005-02-21 09:02:56 51°17.568 2°51.852 328.5 12.9 323 11.9
2005-02-21 09:03:00 51°17.581 2°51.836 328.5 12.9 321 11.8
2005-02-21 09:03:05 51°17.595 2°51.818 327.9 13 321 11.8
2005-02-21 09:03:10 51°17.609 2°51.801 328.1 13 321 11.6
2005-02-21 09:03:15 51°17.622 2°51.784 327.9 13.1 322 11.6
2005-02-21 09:03:21 51°17.639 2°51.764 328.1 13.1 322 11.7
2005-02-21 09:03:25 51°17.652 2°51.748 328.2 13 322 11.7
2005-02-21 09:03:30 51°17.666 2°51.731 328.1 13 322 11.7
2005-02-21 09:03:34 51°17.678 2°51.716 328.3 13.1 322 11.5
2005-02-21 09:03:41 51°17.696 2°51.694 328.5 13.1 322 11.5
2005-02-21 09:03:45 51°17.709 2°51.678 328 13.1 322 11.5
2005-02-21 09:03:50 51°17.724 2°51.659 327.8 13.2 322 11.4
2005-02-21 09:03:56 51°17.738 2°51.641 327.3 12.9 322 11.4
2005-02-21 09:04:01 51°17.753 2°51.622 327.4 12.9 322 11.4
2005-02-21 09:04:05 51°17.766 2°51.606 327.1 13 322 11.4
2005-02-21 09:04:10 51°17.78 2°51.588 327.1 12.9 322 11.5
2005-02-21 09:04:15 51°17.793 2°51.571 327.3 12.9 322 11.7
2005-02-21 09:04:20 51°17.808 2°51.552 327.3 12.9 322 11.3
2005-02-21 09:04:25 51°17.82 2°51.535 327.3 12.8 320 11.8
2005-02-21 09:04:30 51°17.834 2°51.516 326.3 12.5 320 11.5
2005-02-21 09:04:35 51°17.847 2°51.499 326.2 12.6 321 11.8
2005-02-21 09:04:41 51°17.863 2°51.479 326.9 12.6 321 11.7
2005-02-21 09:04:45 51°17.875 2°51.464 327 12.7 321 12
2005-02-21 09:04:50 51°17.889 2°51.447 327.2 12.8 323 12
2005-02-21 09:04:55 51°17.903 2°51.429 328 12.8 323 12
2005-02-21 09:05:00 51°17.918 2°51.413 328 12.8 323 12
2005-02-21 09:05:05 51°17.932 2°51.395 328.1 12.9 323 12.1
2005-02-21 09:05:11 51°17.947 2°51.377 327.9 12.9 323 12.5
2005-02-21 09:05:16 51°17.962 2°51.359 328.1 12.9 323 12.4
2005-02-21 09:05:21 51°17.976 2°51.341 327.8 12.8 322 12.4
2005-02-21 09:05:25 51°17.988 2°51.326 327.6 13 322 12.7
2005-02-21 09:05:30 51°18.002 2°51.308 327.4 13 322 12.8
2005-02-21 09:05:35 51°18.017 2°51.29 327 13 322 12.8
2005-02-21 09:05:40 51°18.031 2°51.272 327.2 12.9 322 12.7
2005-02-21 09:05:45 51°18.044 2°51.255 327.3 12.9 322 12.9
2005-02-21 09:05:50 51°18.059 2°51.237 326.8 12.9 322 13.1
2005-02-21 09:05:55 51°18.073 2°51.219 327 13 321 13.3
2005-02-21 09:06:01 51°18.089 2°51.199 327.2 13 321 13.5
2005-02-21 09:06:05 51°18.101 2°51.183 327.5 13 321 13.8
2005-02-21 09:06:10 51°18.115 2°51.164 327.3 13 321 13.7
2005-02-21 09:06:15 51°18.128 2°51.147 327.2 13 321 13.7
2005-02-21 09:06:21 51°18.144 2°51.126 326.5 13 320 13.9
2005-02-21 09:06:25 51°18.154 2°51.111 326.7 12.9 321 13.9
2005-02-21 09:06:30 51°18.17 2°51.09 326.5 12.9 321 14
2005-02-21 09:06:35 51°18.184 2°51.072 326.4 12.9 321 14.3
2005-02-21 09:06:40 51°18.198 2°51.053 327 13 321 14.3
2005-02-21 09:06:46 51°18.214 2°51.033 327.3 13 321 14.5
2005-02-21 09:06:50 51°18.226 2°51.017 327.1 13 321 14.7
2005-02-21 09:06:55 51°18.24 2°51.001 327.3 12.9 321 14.6
2005-02-21 09:07:00 51°18.254 2°50.987 331 12.3 328 14.5
2005-02-21 09:07:05 51°18.268 2°50.975 333.8 12 328 14.6
2005-02-21 09:07:10 51°18.281 2°50.963 337.2 12 328 14.6
2005-02-21 09:07:15 51°18.294 2°50.954 339.5 10.4 334 14.6
2005-02-21 09:07:21 51°18.308 2°50.943 340.9 10.4 334 14.9
2005-02-21 09:07:25 51°18.317 2°50.937 342.2 9.4 336 15
2005-02-21 09:07:30 51°18.329 2°50.932 344.7 8.4 341 15.1
2005-02-21 09:07:36 51°18.34 2°50.928 348.8 7.9 344 15.1
2005-02-21 09:07:41 51°18.349 2°50.926 354.1 7 351 15.2
2005-02-21 09:07:45 51°18.355 2°50.926 358.2 7 351 15.3
2005-02-21 09:07:50 51°18.364 2°50.926 4 5.9 -999 15.2
2005-02-21 09:07:55 51°18.371 2°50.927 9 5.3 4 15.4
2005-02-21 09:08:01 51°18.377 2°50.929 13.7 5.3 4 15.4
2005-02-21 09:08:05 51°18.383 2°50.932 17.9 4.5 13 15.4
2005-02-21 09:08:10 51°18.388 2°50.936 21.9 4.5 13 15.4
2005-02-21 09:08:15 51°18.393 2°50.939 26.1 4 19 15.6
2005-02-21 09:08:21 51°18.397 2°50.943 29.9 4 19 15.6
2005-02-21 09:08:26 51°18.401 2°50.948 33.3 3.4 35 15.5
2005-02-21 09:08:30 51°18.404 2°50.951 35.8 3.3 32 15.5
2005-02-21 09:08:35 51°18.407 2°50.956 37.3 3.1 36 15.4
2005-02-21 09:08:41 51°18.411 2°50.961 38.5 3.1 36 15.4
2005-02-21 09:08:45 51°18.414 2°50.964 39.7 2.9 38 15.5
2005-02-21 09:08:50 51°18.417 2°50.968 40.9 2.9 37 15.5
2005-02-21 09:08:55 51°18.42 2°50.972 40.5 2.9 38 15.5
2005-02-21 09:09:01 51°18.423 2°50.978 40.6 2.9 38 15.5
2005-02-21 09:09:05 51°18.425 2°50.979 40.2 2.9 38 15.4
2005-02-21 09:09:10 51°18.427 2°50.984 41.4 2.9 38 15.3
2005-02-21 09:09:15 51°18.429 2°50.986 40.3 2.9 38 15.2
2005-02-21 09:09:21 51°18.432 2°50.99 38.7 2.9 38 15.2
2005-02-21 09:09:25 51°18.434 2°50.991 37.1 2.4 37 15.2
2005-02-21 09:09:30 51°18.437 2°50.994 34.2 2.4 37 15.5
2005-02-21 09:09:35 51°18.44 2°50.996 30.8 2.7 30 15.6
2005-02-21 09:09:41 51°18.444 2°51 26.6 2.7 30 15.6
2005-02-21 09:09:45 51°18.448 2°51 23.2 2.7 23 15.7
2005-02-21 09:09:50 51°18.452 2°51.002 18.2 2.8 9 15.8
2005-02-21 09:09:56 51°18.458 2°51.003 14.9 3 11 15.8
2005-02-21 09:10:01 51°18.462 2°51.004 13.8 3 11 15.8
2005-02-21 09:10:05 51°18.464 2°51.005 12.1 2.6 5 15.8
2005-02-21 09:10:10 51°18.468 2°51.005 10.9 2.6 5 15.6
2005-02-21 09:10:14 51°18.469 2°51.005 10.7 1.9 3 15.5
2005-02-21 09:10:21 51°18.473 2°51.005 10.1 2.1 5 15.5
2005-02-21 09:10:25 51°18.474 2°51.005 10 2.1 5 15.5
2005-02-21 09:10:30 51°18.476 2°51.005 10 2.1 5 15.5
2005-02-21 09:10:35 51°18.476 2°51.005 10.3 2.1 5 15.7
2005-02-21 09:10:41 51°18.476 2°51.005 11.3 0.4 330 15.8
2005-02-21 09:10:45 51°18.477 2°51.004 12.3 0.4 330 15.9
2005-02-21 09:10:50 51°18.477 2°51.004 13 0.4 330 16
2005-02-21 09:10:56 51°18.477 2°51.003 12.5 0.4 330 15.8
2005-02-21 09:11:01 51°18.477 2°51.002 12.6 0.2 312 15.8
2005-02-21 09:11:05 51°18.477 2°51.002 11.8 0.4 279 15.7
2005-02-21 09:11:10 51°18.477 2°51.001 11.1 0.4 279 15.7
2005-02-21 09:11:15 51°18.477 2°51.001 11.1 0.4 262 15.7
2005-02-21 09:11:20 51°18.477 2°51 10.7 0.4 262 15.7
2005-02-21 09:11:25 51°18.476 2°50.999 10.7 0.3 246 15.8
2005-02-21 09:11:30 51°18.476 2°50.998 10 0.3 254 15.8
2005-02-21 09:11:35 51°18.476 2°50.997 9.7 0.4 246 15.8
2005-02-21 09:11:41 51°18.475 2°50.997 9.2 0.4 246 15.8
2005-02-21 09:11:45 51°18.475 2°50.997 8.7 0.4 246 15.8
2005-02-21 09:11:51 51°18.475 2°50.996 9.1 0.4 209 15.6
2005-02-21 09:11:55 51°18.474 2°50.995 9.7 0.5 240 15.6
2005-02-21 09:12:01 51°18.474 2°50.994 10 0.5 240 15.8
2005-02-21 09:12:05 51°18.474 2°50.994 9.6 0.4 208 15.6
2005-02-21 09:12:10 51°18.473 2°50.993 9.7 0.4 208 15.7
2005-02-21 09:12:15 51°18.472 2°50.993 9.7 0.4 213 15.7
2005-02-21 09:12:21 51°18.472 2°50.991 9.3 0.4 213 15.7
2005-02-21 09:12:25 51°18.472 2°50.991 8.8 0.4 225 15.6
2005-02-21 09:12:30 51°18.471 2°50.991 8.5 0.4 208 15.7
2005-02-21 09:12:36 51°18.471 2°50.99 8.1 0.4 208 15.7
2005-02-21 09:12:40 51°18.47 2°50.989 7.4 0.6 221 15.7
2005-02-21 09:12:45 51°18.47 2°50.988 6.7 0.6 221 15.7
2005-02-21 09:12:50 51°18.469 2°50.988 5.8 0.6 221 15.8
2005-02-21 09:12:55 51°18.469 2°50.987 4.8 0.6 233 15.8
2005-02-21 09:13:01 51°18.467 2°50.985 3.7 0.5 218 15.6
2005-02-21 09:13:05 51°18.467 2°50.985 2.6 0.6 219 15.6
2005-02-21 09:13:10 51°18.466 2°50.984 1.4 0.6 227 15.7
2005-02-21 09:13:15 51°18.465 2°50.983 0.3 0.7 219 15.7
2005-02-21 09:13:20 51°18.465 2°50.983 359.1 0.7 228 15.8
2005-02-21 09:13:25 51°18.464 2°50.982 357.8 0.5 214 15.8
2005-02-21 09:13:30 51°18.463 2°50.981 356.9 0.5 214 15.8
2005-02-21 09:13:34 51°18.462 2°50.98 356.3 0.8 217 15.8
2005-02-21 09:13:41 51°18.461 2°50.98 355.1 0.8 217 15.7
2005-02-21 09:13:45 51°18.46 2°50.979 353.7 0.7 217 15.7
2005-02-21 09:13:50 51°18.459 2°50.978 352 0.7 217 15.7
2005-02-21 09:13:54 51°18.459 2°50.977 350.5 0.9 214 15.8
2005-02-21 09:14:01 51°18.457 2°50.976 349.4 0.9 214 15.7
2005-02-21 09:14:05 51°18.456 2°50.976 347.8 0.9 214 15.7
2005-02-21 09:14:10 51°18.456 2°50.975 346 0.9 214 15.6
2005-02-21 09:14:16 51°18.455 2°50.975 345.1 0.9 214 15.7
2005-02-21 09:14:21 51°18.453 2°50.974 344 0.7 207 15.8
2005-02-21 09:14:25 51°18.453 2°50.973 343.3 0.9 207 15.8
2005-02-21 09:14:30 51°18.451 2°50.973 342.4 0.7 195 15.7
2005-02-21 09:14:35 51°18.45 2°50.972 340.9 0.9 211 15.7
2005-02-21 09:14:41 51°18.45 2°50.972 340.2 0.9 211 15.7
2005-02-21 09:14:45 51°18.449 2°50.971 339 0.9 215 15.7
2005-02-21 09:14:50 51°18.448 2°50.971 338.7 0.7 185 15.8
2005-02-21 09:14:56 51°18.447 2°50.971 338.2 0.7 185 15.8
2005-02-21 09:15:01 51°18.445 2°50.97 337.8 0.8 186 15.8
2005-02-21 09:15:05 51°18.445 2°50.969 337 0.8 189 15.6
2005-02-21 09:15:10 51°18.444 2°50.969 336.4 0.8 189 15.6
2005-02-21 09:15:15 51°18.443 2°50.968 335.3 0.8 195 15.6
2005-02-21 09:15:21 51°18.442 2°50.968 334.1 0.8 195 15.7
2005-02-21 09:15:25 51°18.441 2°50.967 333.4 0.7 184 15.7
2005-02-21 09:15:30 51°18.44 2°50.967 332.4 0.7 184 15.8
2005-02-21 09:15:35 51°18.439 2°50.966 331.1 0.7 189 15.7
2005-02-21 09:15:41 51°18.438 2°50.965 329.9 0.7 189 15.7
2005-02-21 09:15:45 51°18.438 2°50.964 329.4 0.7 233 15.7
2005-02-21 09:15:50 51°18.438 2°50.963 327.8 0.7 233 15.6
2005-02-21 09:15:55 51°18.438 2°50.961 326.6 0.7 233 15.7
2005-02-21 09:16:00 51°18.438 2°50.959 326.3 0.8 274 15.7
2005-02-21 09:16:05 51°18.439 2°50.956 326 0.9 285 15.7
2005-02-21 09:16:10 51°18.44 2°50.953 325.4 0.9 285 15.5
2005-02-21 09:16:15 51°18.442 2°50.949 325 2.1 304 15.6
2005-02-21 09:16:20 51°18.445 2°50.944 324.4 3 308 15.6
2005-02-21 09:16:25 51°18.449 2°50.938 325.7 3.7 317 15.6
2005-02-21 09:16:31 51°18.454 2°50.93 326.1 4.2 316 15.5
2005-02-21 09:16:36 51°18.459 2°50.922 327 4.2 316 15.6
2005-02-21 09:16:40 51°18.464 2°50.916 328 5.2 321 15.6
2005-02-21 09:16:45 51°18.471 2°50.908 329.2 5.2 321 15.6
2005-02-21 09:16:50 51°18.478 2°50.901 330.2 6.2 324 15.7
2005-02-21 09:16:56 51°18.487 2°50.89 331.5 6.1 324 15.9
2005-02-21 09:17:01 51°18.494 2°50.883 332.6 6.5 325 15.8
2005-02-21 09:17:05 51°18.502 2°50.875 333.8 6.7 326 15.8
2005-02-21 09:17:10 51°18.511 2°50.867 334.5 6.7 326 15.9
2005-02-21 09:17:14 51°18.519 2°50.859 335.8 6.7 326 15.7
2005-02-21 09:17:21 51°18.534 2°50.849 337.8 6.7 326 15.8
2005-02-21 09:17:25 51°18.545 2°50.844 341.6 9 339 16.2
2005-02-21 09:17:30 51°18.557 2°50.838 346.2 9 339 16
2005-02-21 09:17:35 51°18.571 2°50.833 348.6 9.4 345 15.9
2005-02-21 09:17:41 51°18.586 2°50.828 350.7 9.4 345 16
2005-02-21 09:17:46 51°18.599 2°50.824 351.6 9.4 345 16.2
2005-02-21 09:17:50 51°18.613 2°50.819 352.1 10.1 349 16.1
2005-02-21 09:17:55 51°18.626 2°50.816 352.8 10.4 348 16.4
2005-02-21 09:18:01 51°18.64 2°50.812 352.9 10.1 351 16.3
2005-02-21 09:18:05 51°18.651 2°50.811 354.7 10.1 352 15.9
2005-02-21 09:18:10 51°18.668 2°50.81 358.4 10 358 15.9
2005-02-21 09:18:15 51°18.681 2°50.811 0.9 10.3 3 16.2
2005-02-21 09:18:20 51°18.697 2°50.815 5.9 10.3 4 16.3
2005-02-21 09:18:25 51°18.711 2°50.82 10.3 10.6 10 16.4
2005-02-21 09:18:30 51°18.725 2°50.825 14.1 10.9 12 16.6
2005-02-21 09:18:35 51°18.74 2°50.832 16.4 10.6 13 16.3
2005-02-21 09:18:41 51°18.757 2°50.84 18.1 10.9 16 16.4
2005-02-21 09:18:45 51°18.768 2°50.846 19.5 10.5 17 16.5
2005-02-21 09:18:50 51°18.783 2°50.853 20.5 10.5 17 16.6
2005-02-21 09:18:55 51°18.797 2°50.862 21 10.9 18 16.6
2005-02-21 09:19:01 51°18.813 2°50.871 22 10.9 18 16.6
2005-02-21 09:19:05 51°18.825 2°50.878 22.5 11.2 19 16.7
2005-02-21 09:19:10 51°18.841 2°50.888 22.6 11.2 19 16.8
2005-02-21 09:19:15 51°18.855 2°50.897 23.2 11.2 19 16.9
2005-02-21 09:19:21 51°18.872 2°50.91 23.9 11.2 19 16.6
2005-02-21 09:19:25 51°18.883 2°50.921 28.1 11.3 29 16.7
2005-02-21 09:19:30 51°18.897 2°50.936 32 11.4 31 16.6
2005-02-21 09:19:35 51°18.908 2°50.95 35.4 11.4 37 16.7
2005-02-21 09:19:41 51°18.922 2°50.971 38.1 11.4 37 16.5
2005-02-21 09:19:45 51°18.932 2°50.987 42.3 11.6 43 16.7
2005-02-21 09:19:50 51°18.942 2°51.006 45.6 11.5 45 16.6
2005-02-21 09:19:55 51°18.951 2°51.027 50.3 11.5 52 16.8
2005-02-21 09:20:01 51°18.961 2°51.05 54.4 11.5 52 16.9
2005-02-21 09:20:05 51°18.969 2°51.071 57.3 11.5 52 16.6
2005-02-21 09:20:10 51°18.977 2°51.094 60.2 11.8 60 16.6
2005-02-21 09:20:15 51°18.985 2°51.116 61 11.8 60 17
2005-02-21 09:20:21 51°18.993 2°51.14 62 11.8 60 16.9
2005-02-21 09:20:25 51°19.001 2°51.164 63.1 11.9 62 16.6
2005-02-21 09:20:30 51°19.008 2°51.187 63.7 11.8 62 16.7
2005-02-21 09:20:34 51°19.014 2°51.206 64.1 12 63 17
2005-02-21 09:20:40 51°19.023 2°51.233 64.1 12 63 17.2
2005-02-21 09:20:45 51°19.03 2°51.257 63.9 12 63 16.9
2005-02-21 09:20:51 51°19.038 2°51.282 65 12 63 16.9
2005-02-21 09:20:56 51°19.047 2°51.305 64.2 11.7 63 17
2005-02-21 09:21:01 51°19.054 2°51.329 63.8 11.9 63 16.6
2005-02-21 09:21:05 51°19.061 2°51.351 65.3 11.9 64 16.5
2005-02-21 09:21:10 51°19.069 2°51.374 64.8 11.9 64 16.9
2005-02-21 09:21:15 51°19.076 2°51.396 64.4 11.9 64 17.4
2005-02-21 09:21:21 51°19.084 2°51.422 64.1 12.2 63 17.5
2005-02-21 09:21:25 51°19.092 2°51.446 64.7 12.1 64 17.1
2005-02-21 09:21:30 51°19.099 2°51.47 65.1 12.1 64 17.1
2005-02-21 09:21:34 51°19.105 2°51.489 64.5 12.1 63 17.1
2005-02-21 09:21:41 51°19.115 2°51.519 65.1 12.1 63 17.1
2005-02-21 09:21:45 51°19.122 2°51.541 64.5 12.1 63 17
2005-02-21 09:21:50 51°19.13 2°51.565 64 12.1 62 17.1
2005-02-21 09:21:56 51°19.138 2°51.588 64.5 12 63 17.3
2005-02-21 09:22:01 51°19.147 2°51.614 64 12 63 17.3
2005-02-21 09:22:05 51°19.153 2°51.637 64.5 12.2 63 17.1
2005-02-21 09:22:10 51°19.16 2°51.662 65.3 12.3 64 17.1
2005-02-21 09:22:15 51°19.167 2°51.687 68 12.2 68 17
2005-02-21 09:22:21 51°19.173 2°51.715 69.4 12.2 68 17.2
2005-02-21 09:22:25 51°19.178 2°51.737 70.9 12.2 71 17.1
2005-02-21 09:22:30 51°19.183 2°51.763 71.9 12.2 72 17
2005-02-21 09:22:35 51°19.188 2°51.787 72.8 12.2 71 17.2
2005-02-21 09:22:40 51°19.194 2°51.815 73.9 12.2 72 17.1
2005-02-21 09:22:45 51°19.198 2°51.84 73.6 12.2 73 17
2005-02-21 09:22:51 51°19.205 2°51.869 74 12.3 75 17
2005-02-21 09:22:56 51°19.209 2°51.894 74 12.3 75 17.1
2005-02-21 09:23:00 51°19.215 2°51.918 74.2 12.2 71 17.1
2005-02-21 09:23:05 51°19.22 2°51.944 74 12.2 71 17
2005-02-21 09:23:10 51°19.226 2°51.969 73.6 12.2 71 17
2005-02-21 09:23:15 51°19.23 2°51.993 74 12.3 74 17
2005-02-21 09:23:20 51°19.235 2°52.02 74.2 12.3 73 16.9
2005-02-21 09:23:25 51°19.24 2°52.046 74.7 12.3 76 16.8
2005-02-21 09:23:30 51°19.245 2°52.072 75.9 12 74 16.5
2005-02-21 09:23:36 51°19.25 2°52.097 75.4 12.2 74 16.7
2005-02-21 09:23:41 51°19.254 2°52.124 74.6 11.9 75 16.8
2005-02-21 09:23:45 51°19.259 2°52.147 75.6 11.8 73 16.8
2005-02-21 09:23:50 51°19.263 2°52.173 75 11.8 73 16.7
2005-02-21 09:23:56 51°19.269 2°52.2 74.9 11.9 71 16.9
2005-02-21 09:24:01 51°19.274 2°52.226 74.2 11.9 71 17
2005-02-21 09:24:05 51°19.279 2°52.248 74 11.9 71 17.1
2005-02-21 09:24:10 51°19.284 2°52.274 74.4 11.9 71 17.2
2005-02-21 09:24:14 51°19.288 2°52.294 74.7 12 72 17.3
2005-02-21 09:24:21 51°19.294 2°52.327 74.2 12 72 17.4
2005-02-21 09:24:26 51°19.299 2°52.351 75 12.1 73 17.1
2005-02-21 09:24:30 51°19.303 2°52.375 75 12 73 17.1
2005-02-21 09:24:36 51°19.308 2°52.401 76 12 73 16.8
2005-02-21 09:24:41 51°19.312 2°52.428 76 12 73 16.7
2005-02-21 09:24:45 51°19.317 2°52.452 76.5 11.9 76 16.6
2005-02-21 09:24:51 51°19.322 2°52.479 75.8 11.9 76 16.7
2005-02-21 09:24:56 51°19.326 2°52.502 76.4 11.9 74 16.6
2005-02-21 09:25:01 51°19.332 2°52.53 76.4 11.9 74 16.4
2005-02-21 09:25:05 51°19.335 2°52.551 76.2 12 74 16.5
2005-02-21 09:25:10 51°19.34 2°52.579 76.6 12 75 16.5
2005-02-21 09:25:16 51°19.345 2°52.604 76.3 12 75 16.6
2005-02-21 09:25:21 51°19.351 2°52.631 76.6 11.8 76 16.6
2005-02-21 09:25:25 51°19.352 2°52.653 76.2 12.1 77 16.4
2005-02-21 09:25:30 51°19.358 2°52.681 77.6 12 76 16.2
2005-02-21 09:25:36 51°19.362 2°52.706 77.2 11.9 73 15.9
2005-02-21 09:25:41 51°19.367 2°52.734 77.4 11.9 73 16
2005-02-21 09:25:45 51°19.37 2°52.755 76.9 12 73 15.7
2005-02-21 09:25:50 51°19.376 2°52.783 76.9 12.1 76 16
2005-02-21 09:25:56 51°19.38 2°52.812 76.9 12.1 76 16.1
2005-02-21 09:26:01 51°19.385 2°52.836 77.5 12 74 16.1
2005-02-21 09:26:05 51°19.389 2°52.859 76.2 12 73 16.1
2005-02-21 09:26:10 51°19.394 2°52.884 76.6 12 73 16.4
2005-02-21 09:26:14 51°19.397 2°52.905 75.5 12 73 16
2005-02-21 09:26:21 51°19.404 2°52.939 76.3 12 73 15.9
2005-02-21 09:26:25 51°19.408 2°52.961 76.1 12 75 16.1
2005-02-21 09:26:30 51°19.413 2°52.988 75.4 12 75 16
2005-02-21 09:26:36 51°19.417 2°53.013 76 12 74 15.8
2005-02-21 09:26:41 51°19.422 2°53.04 76.1 12.1 73 15.7
2005-02-21 09:26:45 51°19.427 2°53.064 75.7 12 74 15.5
2005-02-21 09:26:50 51°19.432 2°53.089 75.6 12 74 15.7
2005-02-21 09:26:56 51°19.437 2°53.117 76.3 12 74 15.7
2005-02-21 09:27:00 51°19.441 2°53.141 76.3 12.1 74 15.8
2005-02-21 09:27:05 51°19.446 2°53.166 76.2 12.1 74 15.8
2005-02-21 09:27:10 51°19.45 2°53.192 76.1 12.1 74 15.6
2005-02-21 09:27:15 51°19.455 2°53.216 76.2 12.2 74 15.6
2005-02-21 09:27:20 51°19.459 2°53.244 76.4 12.1 74 15.5
2005-02-21 09:27:25 51°19.463 2°53.269 76.9 12.1 73 15.5
2005-02-21 09:27:30 51°19.468 2°53.295 76.7 12.1 75 15.5
2005-02-21 09:27:36 51°19.473 2°53.321 76.2 12.1 73 15.5
2005-02-21 09:27:41 51°19.478 2°53.349 77 12.2 75 15.4
2005-02-21 09:27:45 51°19.482 2°53.372 76.5 12.1 74 15.4
2005-02-21 09:27:51 51°19.488 2°53.402 76.7 12.1 74 15.4
2005-02-21 09:27:56 51°19.492 2°53.426 76.3 12.1 74 15.2
2005-02-21 09:28:00 51°19.496 2°53.45 76.2 12.1 75 15.2
2005-02-21 09:28:05 51°19.501 2°53.476 77.1 12.1 75 15
2005-02-21 09:28:10 51°19.506 2°53.502 76.4 12.1 75 15.2
2005-02-21 09:28:16 51°19.511 2°53.528 76.3 12.1 74 15
2005-02-21 09:28:21 51°19.516 2°53.556 76.2 12.1 73 14.9
2005-02-21 09:28:25 51°19.52 2°53.579 76.3 12.2 73 14.9
2005-02-21 09:28:30 51°19.525 2°53.604 76.2 12 73 14.9
2005-02-21 09:28:36 51°19.53 2°53.63 75.9 12 73 14.8
2005-02-21 09:28:41 51°19.535 2°53.658 75.3 12 73 14.7
2005-02-21 09:28:45 51°19.538 2°53.679 75.6 12.1 74 14.7
2005-02-21 09:28:50 51°19.544 2°53.707 76.4 12.1 72 14.8
2005-02-21 09:28:56 51°19.548 2°53.733 75.4 12.1 72 14.8
2005-02-21 09:29:01 51°19.554 2°53.761 76.8 12.1 71 14.9
2005-02-21 09:29:05 51°19.558 2°53.784 75.5 12.1 71 15
2005-02-21 09:29:10 51°19.563 2°53.809 76.1 12 76 15
2005-02-21 09:29:16 51°19.567 2°53.837 75.6 12.1 72 14.8
2005-02-21 09:29:21 51°19.572 2°53.863 76.4 12.1 72 14.9
2005-02-21 09:29:25 51°19.576 2°53.886 77.4 12.1 72 14.8
2005-02-21 09:29:30 51°19.581 2°53.913 77.2 12.1 72 14.7
2005-02-21 09:29:34 51°19.584 2°53.933 77.3 12 75 14.7
2005-02-21 09:29:40 51°19.588 2°53.964 77.8 11.9 76 14.6
2005-02-21 09:29:45 51°19.592 2°53.988 78.6 11.9 76 14.4
2005-02-21 09:29:50 51°19.596 2°54.015 77.9 12 78 14.6
2005-02-21 09:29:55 51°19.601 2°54.039 79.5 12 75 14.8
2005-02-21 09:30:00 51°19.604 2°54.066 77.7 11.9 74 14.5
2005-02-21 09:30:05 51°19.609 2°54.092 77.7 11.8 76 14.5
2005-02-21 09:30:10 51°19.612 2°54.119 78.5 12 77 14.5
2005-02-21 09:30:15 51°19.616 2°54.143 78.7 11.9 76 14.7
2005-02-21 09:30:21 51°19.621 2°54.173 78.5 11.9 76 14.6
2005-02-21 09:30:25 51°19.625 2°54.196 78.9 12 74 14.7
2005-02-21 09:30:30 51°19.628 2°54.222 78.3 12 75 14.7
2005-02-21 09:30:35 51°19.633 2°54.245 78.6 12.2 74 14.7
2005-02-21 09:30:40 51°19.637 2°54.274 77.7 12.2 77 14.6
2005-02-21 09:30:45 51°19.641 2°54.3 78.7 12.1 75 14.6
2005-02-21 09:30:50 51°19.645 2°54.326 78.7 12.1 75 14.7
2005-02-21 09:30:55 51°19.649 2°54.35 77.6 12.1 75 14.6
2005-02-21 09:31:01 51°19.655 2°54.381 77.9 12.2 77 14.6
2005-02-21 09:31:05 51°19.658 2°54.404 78.1 12.1 74 14.7
2005-02-21 09:31:11 51°19.663 2°54.433 78.4 12.1 76 14.7
2005-02-21 09:31:15 51°19.666 2°54.453 78.2 12 75 14.8
2005-02-21 09:31:21 51°19.671 2°54.485 78.1 12 75 14.6
2005-02-21 09:31:25 51°19.674 2°54.508 78.4 12.1 76 14.7
2005-02-21 09:31:30 51°19.678 2°54.535 78.6 12.1 76 14.3
2005-02-21 09:31:36 51°19.682 2°54.56 79.3 12.1 76 14.5
2005-02-21 09:31:41 51°19.686 2°54.588 78.7 12 75 14.4
2005-02-21 09:31:45 51°19.689 2°54.608 78.3 12 76 14.4
2005-02-21 09:31:50 51°19.693 2°54.638 79.2 12 76 14.3
2005-02-21 09:31:56 51°19.697 2°54.663 78.3 12 75 14.5
2005-02-21 09:32:00 51°19.701 2°54.689 78.3 11.9 77 14.5
2005-02-21 09:32:05 51°19.705 2°54.715 79.2 12.1 75 14.4
2005-02-21 09:32:10 51°19.709 2°54.741 78.3 12 76 14.5
2005-02-21 09:32:15 51°19.713 2°54.764 77.7 12 76 14.4
2005-02-21 09:32:21 51°19.718 2°54.794 79.8 12 76 14.6
2005-02-21 09:32:25 51°19.72 2°54.818 77.9 12 75 14.6
2005-02-21 09:32:30 51°19.725 2°54.844 77.8 12.1 76 14.5
2005-02-21 09:32:35 51°19.729 2°54.87 77.5 12.1 76 14.6
2005-02-21 09:32:41 51°19.734 2°54.897 77.6 12.1 76 14.7
2005-02-21 09:32:45 51°19.737 2°54.921 77.2 11.9 74 14.4
2005-02-21 09:32:50 51°19.742 2°54.946 77.2 11.9 74 14.5
2005-02-21 09:32:55 51°19.745 2°54.972 77.5 11.9 74 14.3
2005-02-21 09:33:01 51°19.75 2°55.001 78.8 12 75 14.3
2005-02-21 09:33:05 51°19.753 2°55.024 77.7 12 78 14.6
2005-02-21 09:33:10 51°19.758 2°55.049 78.5 12 78 14.6
2005-02-21 09:33:15 51°19.761 2°55.075 78.4 12 77 14.6
2005-02-21 09:33:20 51°19.765 2°55.101 78.5 12 75 14.5
2005-02-21 09:33:25 51°19.769 2°55.124 78.3 12.1 76 14.6
2005-02-21 09:33:30 51°19.773 2°55.153 77.9 12.1 76 14.6
2005-02-21 09:33:36 51°19.778 2°55.181 78.4 12.1 78 14.6
2005-02-21 09:33:41 51°19.781 2°55.207 78.1 12 78 14.3
2005-02-21 09:33:45 51°19.786 2°55.231 79.2 12.2 80 14.3
2005-02-21 09:33:50 51°19.789 2°55.257 77.6 12 76 14.2
2005-02-21 09:33:54 51°19.793 2°55.277 78.5 12.1 74 14.1
2005-02-21 09:34:00 51°19.797 2°55.309 78.4 12.1 74 14.1
2005-02-21 09:34:05 51°19.802 2°55.335 78 12 74 14.1
2005-02-21 09:34:10 51°19.806 2°55.36 77.7 12 74 14.4
2005-02-21 09:34:15 51°19.81 2°55.387 77.8 12.2 77 14.3
2005-02-21 09:34:20 51°19.813 2°55.413 78.8 12.2 77 14.2
2005-02-21 09:34:25 51°19.818 2°55.439 78.5 12.1 76 14
2005-02-21 09:34:31 51°19.823 2°55.469 78.3 12.2 77 14.1
2005-02-21 09:34:35 51°19.826 2°55.489 78.5 12.1 76 14.3
2005-02-21 09:34:41 51°19.831 2°55.52 78.5 12.1 76 14.3
2005-02-21 09:34:45 51°19.834 2°55.541 77.9 12.2 76 14.3
2005-02-21 09:34:50 51°19.839 2°55.569 78.3 12.2 76 14.4
2005-02-21 09:34:54 51°19.841 2°55.59 78 12.1 77 14.3
2005-02-21 09:35:01 51°19.846 2°55.625 78.4 12.2 76 14.2
2005-02-21 09:35:05 51°19.849 2°55.645 78.4 12.2 75 14
2005-02-21 09:35:10 51°19.855 2°55.674 78.5 12.2 76 14
2005-02-21 09:35:14 51°19.857 2°55.695 78.4 12.2 76 14.1
2005-02-21 09:35:21 51°19.863 2°55.729 79.1 12.2 77 14.2
2005-02-21 09:35:25 51°19.866 2°55.753 78.9 12.1 76 14.1
2005-02-21 09:35:30 51°19.87 2°55.779 78.5 12.1 76 14.2
2005-02-21 09:35:34 51°19.874 2°55.799 78.5 12.1 75 14.2
2005-02-21 09:35:41 51°19.878 2°55.833 78.3 12.1 75 14.1
2005-02-21 09:35:45 51°19.881 2°55.854 78.1 12.1 75 13.9
2005-02-21 09:35:50 51°19.887 2°55.883 77.9 12.2 74 13.8
2005-02-21 09:35:55 51°19.89 2°55.909 78.5 12.2 78 14
2005-02-21 09:36:01 51°19.895 2°55.938 78.5 12.2 78 13.9
2005-02-21 09:36:05 51°19.898 2°55.958 78.5 12 76 14.1
2005-02-21 09:36:11 51°19.903 2°55.99 78.1 12 76 14.1
2005-02-21 09:36:14 51°19.905 2°56.008 78.4 12.1 77 14
2005-02-21 09:36:21 51°19.91 2°56.042 78.2 12 74 14.1
2005-02-21 09:36:25 51°19.915 2°56.064 78.2 12 79 14.2
2005-02-21 09:36:30 51°19.919 2°56.091 77.7 12.1 77 14
2005-02-21 09:36:35 51°19.922 2°56.117 78.1 12.2 76 14
2005-02-21 09:36:41 51°19.926 2°56.145 78.2 12 76 13.9
2005-02-21 09:36:45 51°19.929 2°56.166 78.3 12.2 76 13.7
2005-02-21 09:36:50 51°19.935 2°56.195 78.5 12.2 76 13.8
2005-02-21 09:36:54 51°19.938 2°56.216 77.6 12.2 76 13.8
2005-02-21 09:37:01 51°19.944 2°56.249 77.8 12.2 72 13.9
2005-02-21 09:37:05 51°19.948 2°56.273 77.4 12.1 76 14.2
2005-02-21 09:37:10 51°19.951 2°56.3 78.2 12.1 76 13.9
2005-02-21 09:37:15 51°19.955 2°56.324 78.6 12.2 76 13.9
2005-02-21 09:37:21 51°19.96 2°56.355 79.1 12.2 76 13.9
2005-02-21 09:37:25 51°19.964 2°56.378 78.7 12.1 76 13.9
2005-02-21 09:37:30 51°19.968 2°56.404 78.8 12.1 76 14
2005-02-21 09:37:36 51°19.973 2°56.433 78.5 12.1 76 14
2005-02-21 09:37:41 51°19.977 2°56.458 77.9 12.1 75 14.1
2005-02-21 09:37:45 51°19.98 2°56.482 77.5 12.1 75 14
2005-02-21 09:37:50 51°19.985 2°56.509 77.9 12.1 75 13.8
2005-02-21 09:37:55 51°19.989 2°56.535 78.3 12.1 75 13.9
2005-02-21 09:38:01 51°19.994 2°56.563 78.5 12.1 75 14.1
2005-02-21 09:38:05 51°19.997 2°56.587 78.2 12.1 75 14
2005-02-21 09:38:10 51°20.001 2°56.613 78.6 12.2 76 13.9
2005-02-21 09:38:15 51°20.006 2°56.64 78.3 12.2 76 14
2005-02-21 09:38:21 51°20.01 2°56.668 77.9 12.2 75 14
2005-02-21 09:38:25 51°20.014 2°56.689 78.1 12.2 77 14.1
2005-02-21 09:38:31 51°20.018 2°56.723 78.6 12.2 77 13.9
2005-02-21 09:38:34 51°20.021 2°56.739 78.3 12.2 77 13.8
2005-02-21 09:38:41 51°20.026 2°56.774 78.3 12.2 77 13.7
2005-02-21 09:38:45 51°20.03 2°56.797 78.5 12.2 76 13.9
2005-02-21 09:38:50 51°20.034 2°56.824 78.1 12.2 76 13.7
2005-02-21 09:38:55 51°20.039 2°56.849 77.9 12.2 75 13.8
2005-02-21 09:39:00 51°20.042 2°56.876 77.6 12.2 75 14
2005-02-21 09:39:05 51°20.047 2°56.902 78.3 12.2 75 13.9
2005-02-21 09:39:10 51°20.051 2°56.928 78.3 12.2 78 13.8
2005-02-21 09:39:15 51°20.054 2°56.952 78.3 12.2 77 13.7
2005-02-21 09:39:21 51°20.059 2°56.983 78.7 12.2 77 13.7
2005-02-21 09:39:25 51°20.062 2°57.007 78.9 12.2 77 13.7
2005-02-21 09:39:31 51°20.067 2°57.038 78.3 12.4 78 13.8
2005-02-21 09:39:35 51°20.07 2°57.06 78.3 12.8 77 13.6
2005-02-21 09:39:41 51°20.077 2°57.092 78.3 12.8 77 13.7
2005-02-21 09:39:45 51°20.079 2°57.114 77.2 13 77 13.9
2005-02-21 09:39:50 51°20.084 2°57.146 78.2 13 77 13.6
2005-02-21 09:39:55 51°20.089 2°57.171 77.7 13.4 75 13.8
2005-02-21 09:40:01 51°20.094 2°57.206 77.6 13.4 75 13.6
2005-02-21 09:40:05 51°20.098 2°57.233 78.4 13.4 76 13.8
2005-02-21 09:40:10 51°20.103 2°57.262 78.9 13.4 76 13.6
2005-02-21 09:40:16 51°20.107 2°57.294 78.6 13.8 76 13.7
2005-02-21 09:40:21 51°20.113 2°57.324 78.6 13.7 77 13.7
2005-02-21 09:40:25 51°20.116 2°57.351 79 13.7 74 13.5
2005-02-21 09:40:30 51°20.121 2°57.38 78.6 13.7 74 13.7
2005-02-21 09:40:35 51°20.124 2°57.408 78.8 13.7 74 13.6
2005-02-21 09:40:41 51°20.13 2°57.441 79.6 13.8 74 13.7
2005-02-21 09:40:45 51°20.133 2°57.469 78.4 13.6 78 13.6
2005-02-21 09:40:50 51°20.139 2°57.498 79.3 13.6 78 13.6
2005-02-21 09:40:54 51°20.142 2°57.522 78.1 13.8 76 13.6
2005-02-21 09:41:01 51°20.149 2°57.559 78.1 13.8 76 13.6
2005-02-21 09:41:05 51°20.153 2°57.587 78 13.8 76 13.5
2005-02-21 09:41:10 51°20.158 2°57.616 78.2 13.9 76 13.5
2005-02-21 09:41:15 51°20.162 2°57.646 77.6 13.8 76 13.6
2005-02-21 09:41:21 51°20.167 2°57.678 78.5 13.8 76 13.5
2005-02-21 09:41:25 51°20.172 2°57.705 78.5 13.8 75 13.3
2005-02-21 09:41:30 51°20.177 2°57.735 78.8 14 77 13.3
2005-02-21 09:41:35 51°20.181 2°57.765 78.5 13.8 74 13.3
2005-02-21 09:41:41 51°20.188 2°57.797 78.5 13.8 74 13.3
2005-02-21 09:41:45 51°20.191 2°57.824 77.9 13.9 77 13.3
2005-02-21 09:41:50 51°20.196 2°57.854 78.2 13.9 77 13.4
2005-02-21 09:41:55 51°20.201 2°57.884 78.8 13.9 77 13.5
2005-02-21 09:42:01 51°20.205 2°57.917 78.7 13.8 76 13.3
2005-02-21 09:42:05 51°20.21 2°57.944 79.1 14 75 13.1
2005-02-21 09:42:10 51°20.214 2°57.974 78.5 14 74 13.3
2005-02-21 09:42:15 51°20.22 2°58.004 78.2 14 74 13.1
2005-02-21 09:42:21 51°20.224 2°58.037 78.3 14 74 13.2
2005-02-21 09:42:25 51°20.229 2°58.06 78.5 14 75 13.3
2005-02-21 09:42:30 51°20.233 2°58.094 78.5 14 75 13.2
2005-02-21 09:42:35 51°20.238 2°58.124 79.8 14 75 13.4
2005-02-21 09:42:41 51°20.243 2°58.157 79 14 76 13.2
2005-02-21 09:42:45 51°20.248 2°58.184 78.7 13.9 74 13.2
2005-02-21 09:42:50 51°20.253 2°58.214 79.1 13.9 74 13.3
2005-02-21 09:42:54 51°20.256 2°58.238 78.5 14 75 13.3
2005-02-21 09:43:01 51°20.262 2°58.277 78.4 14 75 13.2